Wiconisco, Pennsylvania
Current Conditions -  °F | °C
As of 6:22 AM on Tuesday 21 Oct 2014 (Local Time) from KMUI Reporting Station
Moderate Fog Moderate Fog  
Wind Chill:   Ceiling: 10000
Heat Index:   Visibility: 0.5mi
Dew Point:   Wind: 0mph
Humidity: 100%   Direction: NA
Pressure: 29.86"   Gusts: NA
Location:  40.57°N, 76.69°W
Report Text: KMUI 211022Z AUTO 00000KT 1/2SM FG FEW070 BKN100 09/09 A2986 RMK AO2 RVRNO $
Loading
Personal Weather Stations






























Interactive Weather Map
Tropical Storm Tracking
New forecast layout! Learn more

10-Day Weather Forecast

Advertisements
Track Severe Weather on mobile